createdAt,value
2023-01-25T00:01:56.563Z,8.00
2023-01-25T00:06:59.457Z,6.63
2023-01-25T00:12:02.164Z,3.08
2023-01-25T00:17:05.004Z,1.67
2023-01-25T00:22:07.885Z,7.13
2023-01-25T00:27:10.641Z,7.53
2023-01-25T00:32:13.503Z,7.27
2023-01-25T00:37:29.269Z,4.03
2023-01-25T00:42:33.391Z,4.83
2023-01-25T00:47:36.169Z,7.22
2023-01-25T00:52:40.543Z,7.20
2023-01-25T00:57:43.228Z,7.60
2023-01-25T01:02:46.008Z,4.68
2023-01-25T01:07:50.681Z,4.40
2023-01-25T01:12:55.324Z,7.13
2023-01-25T01:17:58.033Z,5.78
2023-01-25T01:23:01.078Z,6.60
2023-01-25T01:28:04.146Z,5.80
2023-01-25T01:33:07.306Z,3.30
2023-01-25T01:38:09.962Z,4.88
2023-01-25T01:43:24.327Z,5.57
2023-01-25T01:48:34.545Z,5.70
2023-01-25T01:53:40.214Z,4.70
2023-01-25T01:58:44.581Z,3.70
2023-01-25T02:03:48.948Z,7.10
2023-01-25T02:08:53.359Z,4.88
2023-01-25T02:13:58.442Z,6.10
2023-01-25T02:19:03.875Z,6.28
2023-01-25T02:24:18.816Z,5.83
2023-01-25T02:29:24.430Z,1.88
2023-01-25T02:34:28.275Z,6.45
2023-01-25T02:39:31.393Z,6.10
2023-01-25T02:44:35.018Z,8.27
2023-01-25T02:49:39.511Z,7.07
2023-01-25T02:54:43.873Z,5.03
2023-01-25T02:59:46.795Z,8.00
2023-01-25T03:04:51.540Z,9.50
2023-01-25T03:09:54.313Z,8.95
2023-01-25T03:14:57.188Z,8.17
2023-01-25T03:20:00.046Z,11.57
2023-01-25T03:25:03.264Z,8.57
2023-01-25T03:30:07.285Z,7.93
2023-01-25T03:35:10.900Z,9.20
2023-01-25T03:40:14.493Z,8.70
2023-01-25T03:45:20.999Z,13.40
2023-01-25T03:50:24.085Z,9.18
2023-01-25T03:55:26.861Z,7.67
2023-01-25T04:00:29.788Z,9.35
2023-01-25T04:05:36.309Z,10.90
2023-01-25T04:10:39.516Z,13.10
2023-01-25T04:15:43.504Z,14.65
2023-01-25T04:20:57.473Z,12.20
2023-01-25T04:26:03.478Z,11.55
2023-01-25T04:31:06.621Z,8.63
2023-01-25T04:36:14.753Z,11.85
2023-01-25T04:41:18.761Z,11.93
2023-01-25T04:46:21.610Z,11.83
2023-01-25T04:51:24.511Z,13.00
2023-01-25T04:56:27.613Z,19.57
2023-01-25T05:01:33.749Z,25.98
2023-01-25T05:06:40.563Z,22.58
2023-01-25T05:11:43.684Z,19.47
2023-01-25T05:16:54.011Z,21.35
2023-01-25T05:22:00.645Z,21.90
2023-01-25T05:27:10.066Z,15.75
2023-01-25T05:32:32.716Z,17.05
2023-01-25T05:37:35.741Z,13.00
2023-01-25T05:42:42.532Z,13.60
2023-01-25T05:47:54.594Z,11.23
2023-01-25T05:52:57.270Z,17.77
2023-01-25T05:58:00.429Z,14.02
2023-01-25T06:03:03.977Z,13.53
2023-01-25T06:08:09.706Z,9.88
2023-01-25T06:13:23.279Z,13.13
2023-01-25T06:18:26.143Z,12.05
2023-01-25T06:23:56.835Z,11.80
2023-01-25T06:28:59.798Z,12.17
2023-01-25T06:34:04.822Z,8.68
2023-01-25T06:39:07.968Z,10.60
2023-01-25T06:44:10.725Z,11.48
2023-01-25T06:49:13.512Z,11.25
2023-01-25T06:54:16.714Z,7.83
2023-01-25T06:59:19.484Z,14.00
2023-01-25T07:04:22.302Z,12.97
2023-01-25T07:09:25.165Z,19.67
2023-01-25T07:14:28.235Z,12.10
2023-01-25T07:19:31.173Z,16.80
2023-01-25T07:24:34.037Z,12.02
2023-01-25T07:29:36.792Z,15.83
2023-01-25T07:34:39.556Z,13.38
2023-01-25T07:39:48.420Z,19.48
2023-01-25T07:44:51.717Z,17.23
2023-01-25T07:49:55.354Z,14.63
2023-01-25T07:54:58.248Z,19.57
2023-01-25T08:00:01.087Z,16.63
2023-01-25T08:05:04.219Z,15.02
2023-01-25T08:10:07.580Z,13.00
2023-01-25T08:15:11.589Z,17.00
2023-01-25T08:20:14.746Z,15.40
2023-01-25T08:25:17.541Z,12.98
2023-01-25T08:30:20.348Z,23.75
2023-01-25T08:35:23.165Z,14.13
2023-01-25T08:40:25.956Z,14.43
2023-01-25T08:45:28.645Z,13.53
2023-01-25T08:50:31.459Z,10.95
2023-01-25T08:55:36.544Z,14.93
2023-01-25T09:00:41.227Z,12.83
2023-01-25T09:05:44.016Z,9.52
2023-01-25T09:10:47.008Z,11.80
2023-01-25T09:15:49.815Z,12.02
2023-01-25T09:20:52.581Z,12.32
2023-01-25T09:26:02.146Z,14.63
2023-01-25T09:31:20.947Z,9.82
2023-01-25T09:36:54.597Z,11.20
2023-01-25T09:42:41.538Z,13.32
2023-01-25T09:48:21.266Z,10.95
2023-01-25T09:53:49.461Z,16.37
2023-01-25T09:59:16.530Z,8.20
2023-01-25T10:04:39.817Z,7.90
2023-01-25T10:09:52.044Z,6.60
2023-01-25T10:14:55.217Z,9.20
2023-01-25T10:20:04.760Z,9.63
2023-01-25T10:25:20.136Z,11.85
2023-01-25T10:30:35.077Z,10.60
2023-01-25T10:35:45.748Z,9.63
2023-01-25T10:41:02.512Z,7.22
2023-01-25T10:46:17.961Z,12.43
2023-01-25T10:51:33.081Z,6.32
2023-01-25T10:56:39.858Z,9.23
2023-01-25T11:01:43.362Z,9.18
2023-01-25T11:06:52.096Z,6.22
2023-01-25T11:12:07.813Z,11.27
2023-01-25T11:17:28.206Z,13.02
2023-01-25T11:22:31.087Z,7.87
2023-01-25T11:27:34.428Z,8.68
2023-01-25T11:32:40.007Z,6.18
2023-01-25T11:37:51.968Z,7.27
2023-01-25T11:43:13.157Z,8.18
2023-01-25T11:48:48.294Z,6.53
2023-01-25T11:54:29.500Z,7.93
2023-01-25T11:59:56.991Z,6.88
2023-01-25T12:05:34.156Z,7.50
2023-01-25T12:10:58.413Z,7.47
2023-01-25T12:16:21.665Z,7.63
2023-01-25T12:21:43.151Z,5.80
2023-01-25T12:26:52.894Z,6.63
2023-01-25T12:32:11.915Z,7.17
2023-01-25T12:37:33.242Z,5.97
2023-01-25T12:42:47.234Z,4.73
2023-01-25T12:47:59.246Z,4.63
2023-01-25T12:53:11.096Z,5.45
2023-01-25T12:58:53.111Z,4.90
2023-01-25T13:04:24.882Z,6.13
2023-01-25T13:10:05.362Z,5.97
2023-01-25T13:15:44.558Z,4.72
2023-01-25T13:20:59.145Z,4.13
2023-01-25T13:26:31.413Z,6.03
2023-01-25T13:31:51.506Z,6.57
2023-01-25T13:36:56.684Z,4.97
2023-01-25T13:42:06.227Z,3.25
2023-01-25T13:47:13.090Z,6.15
2023-01-25T13:52:19.742Z,7.50
2023-01-25T13:57:32.036Z,3.88
2023-01-25T14:02:36.048Z,5.33
2023-01-25T14:07:39.705Z,10.63
2023-01-25T14:12:44.968Z,6.65
2023-01-25T14:18:04.343Z,4.50
2023-01-25T14:23:30.790Z,4.60
2023-01-25T14:28:33.865Z,7.27
2023-01-25T14:33:40.607Z,8.30
2023-01-25T14:38:44.038Z,6.13
2023-01-25T14:43:53.488Z,9.07
2023-01-25T14:49:14.689Z,8.13
2023-01-25T14:54:23.713Z,6.53
2023-01-25T14:59:26.521Z,9.23
2023-01-25T15:04:29.773Z,7.93
2023-01-25T15:09:33.469Z,6.97
2023-01-25T15:14:49.146Z,7.32
2023-01-25T15:19:55.311Z,5.07
2023-01-25T15:24:58.806Z,11.07
2023-01-25T15:30:01.637Z,10.57
2023-01-25T15:35:05.274Z,8.80
2023-01-25T15:40:09.516Z,6.00
2023-01-25T15:45:13.308Z,8.17
2023-01-25T15:50:19.627Z,13.95
2023-01-25T15:55:24.295Z,4.63
2023-01-25T16:00:27.672Z,4.87
2023-01-25T16:05:30.584Z,8.55
2023-01-25T16:10:34.814Z,8.10
2023-01-25T16:15:39.026Z,8.77
2023-01-25T16:20:43.900Z,6.40
2023-01-25T16:25:48.839Z,10.30
2023-01-25T16:30:52.271Z,7.40
2023-01-25T16:36:25.954Z,8.33
2023-01-25T16:41:28.863Z,9.45
2023-01-25T16:46:31.923Z,9.23
2023-01-25T16:51:34.844Z,10.33
2023-01-25T16:56:39.322Z,8.05
2023-01-25T17:01:42.718Z,9.37
2023-01-25T17:06:48.360Z,3.63
2023-01-25T17:11:51.052Z,10.35
2023-01-25T17:16:54.787Z,8.60
2023-01-25T17:21:59.433Z,8.32
2023-01-25T17:27:02.978Z,5.83
2023-01-25T17:32:06.218Z,7.90
2023-01-25T17:37:09.258Z,7.13
2023-01-25T17:42:14.414Z,8.87
2023-01-25T17:47:17.352Z,12.27
2023-01-25T17:52:20.160Z,12.23
2023-01-25T17:57:24.899Z,11.98
2023-01-25T18:02:27.893Z,14.10
2023-01-25T18:07:30.869Z,6.63
2023-01-25T18:12:34.257Z,12.75
2023-01-25T18:17:39.035Z,10.30
2023-01-25T18:22:44.453Z,11.05
2023-01-25T18:27:47.252Z,18.70
2023-01-25T18:32:50.264Z,13.70
2023-01-25T18:37:53.244Z,11.77
2023-01-25T18:42:56.105Z,7.40
2023-01-25T18:48:00.823Z,17.75
2023-01-25T18:53:03.873Z,17.85
2023-01-25T18:58:07.658Z,13.50
2023-01-25T19:03:10.404Z,13.95
2023-01-25T19:08:15.415Z,13.00
2023-01-25T19:13:18.342Z,10.75
2023-01-25T19:18:21.625Z,10.75
2023-01-25T19:23:24.543Z,6.57
2023-01-25T19:28:27.962Z,11.65
2023-01-25T19:33:30.786Z,15.37
2023-01-25T19:38:37.791Z,18.00
2023-01-25T19:43:44.719Z,19.55
2023-01-25T19:48:50.215Z,10.67
2023-01-25T19:54:08.652Z,15.82
2023-01-25T19:59:16.951Z,14.13
2023-01-25T20:04:22.361Z,4.13
2023-01-25T20:09:28.359Z,11.20
2023-01-25T20:14:31.218Z,16.10
2023-01-25T20:19:35.463Z,21.48
2023-01-25T20:24:38.257Z,10.73
2023-01-25T20:29:41.255Z,13.45
2023-01-25T20:34:44.203Z,14.25
2023-01-25T20:39:47.099Z,14.53
2023-01-25T20:44:50.087Z,4.70
2023-01-25T20:49:53.188Z,4.60
2023-01-25T20:54:56.663Z,9.77
2023-01-25T20:59:59.807Z,20.40
2023-01-25T21:05:02.727Z,11.57
2023-01-25T21:10:06.094Z,20.73
2023-01-25T21:15:10.545Z,14.93
2023-01-25T21:20:13.776Z,11.48
2023-01-25T21:25:16.684Z,14.18
2023-01-25T21:30:21.838Z,8.30
2023-01-25T21:35:26.761Z,14.68
2023-01-25T21:40:30.779Z,12.00
2023-01-25T21:45:52.340Z,6.30
2023-01-25T21:51:16.717Z,11.70
2023-01-25T21:56:19.593Z,16.63
2023-01-25T22:01:23.437Z,15.30
2023-01-25T22:06:27.211Z,17.93
2023-01-25T22:11:30.128Z,17.95
2023-01-25T22:16:33.344Z,19.85
2023-01-25T22:21:36.621Z,13.37
2023-01-25T22:27:24.067Z,18.67
2023-01-25T22:32:27.016Z,13.33
2023-01-25T22:37:29.919Z,13.55
2023-01-25T22:42:32.731Z,7.35
2023-01-25T22:47:35.439Z,13.37
2023-01-25T22:52:38.230Z,14.88
2023-01-25T22:57:40.904Z,15.17
2023-01-25T23:02:43.615Z,14.23
2023-01-25T23:07:46.370Z,13.55
2023-01-25T23:12:49.186Z,13.03
2023-01-25T23:18:10.316Z,15.48
2023-01-25T23:23:13.077Z,14.43
2023-01-25T23:28:16.199Z,13.73
2023-01-25T23:33:18.952Z,13.45
2023-01-25T23:38:21.947Z,16.00
2023-01-25T23:43:24.691Z,19.70
2023-01-25T23:48:27.557Z,12.67
2023-01-25T23:53:33.515Z,13.90
2023-01-25T23:58:38.633Z,15.23
